createdAt,value
2019-06-26T00:00:00.188Z,66.46
2019-06-26T00:02:29.524Z,66.46
2019-06-26T00:04:58.864Z,65.95
2019-06-26T00:07:28.131Z,66.59
2019-06-26T00:09:57.497Z,65.92
2019-06-26T00:12:27.001Z,65.31
2019-06-26T00:14:56.352Z,66.24
2019-06-26T00:17:26.637Z,66.04
2019-06-26T00:19:55.962Z,66.13
2019-06-26T00:22:25.273Z,66.40
2019-06-26T00:24:54.557Z,66.52
2019-06-26T00:27:23.929Z,66.54
2019-06-26T00:29:54.922Z,67.30
2019-06-26T00:32:24.225Z,67.10
2019-06-26T00:34:53.690Z,68.52
2019-06-26T00:37:22.993Z,67.67
2019-06-26T00:39:52.278Z,67.20
2019-06-26T00:42:21.617Z,67.79
2019-06-26T00:44:50.935Z,68.69
2019-06-26T00:47:20.284Z,67.91
2019-06-26T00:49:49.591Z,68.46
2019-06-26T00:52:18.975Z,68.42
2019-06-26T00:54:48.356Z,68.15
2019-06-26T00:57:17.689Z,68.47
2019-06-26T00:59:48.058Z,68.91
2019-06-26T01:02:17.533Z,68.49
2019-06-26T01:04:48.715Z,68.95
2019-06-26T01:07:18.094Z,68.92
2019-06-26T01:09:47.394Z,68.74
2019-06-26T01:12:16.783Z,68.74
2019-06-26T01:14:46.060Z,69.31
2019-06-26T01:17:15.395Z,69.39
2019-06-26T01:19:44.680Z,69.90
2019-06-26T01:22:13.963Z,70.69
2019-06-26T01:24:43.227Z,70.29
2019-06-26T01:27:12.525Z,70.42
2019-06-26T01:29:41.899Z,70.18
2019-06-26T01:32:12.287Z,70.67
2019-06-26T01:34:41.763Z,69.58
2019-06-26T01:37:11.133Z,70.68
2019-06-26T01:39:40.460Z,70.81
2019-06-26T01:42:09.774Z,70.02
2019-06-26T01:44:39.042Z,71.82
2019-06-26T01:47:08.321Z,71.12
2019-06-26T01:49:37.615Z,70.32
2019-06-26T01:52:06.997Z,71.22
2019-06-26T01:54:36.254Z,71.67
2019-06-26T01:57:05.735Z,71.02
2019-06-26T01:59:35.145Z,71.67
2019-06-26T02:02:04.738Z,71.38
2019-06-26T02:04:34.200Z,72.31
2019-06-26T02:07:03.548Z,72.53
2019-06-26T02:09:32.800Z,72.50
2019-06-26T02:12:02.128Z,71.73
2019-06-26T02:14:32.007Z,71.22
2019-06-26T02:17:01.341Z,73.10
2019-06-26T02:19:30.679Z,72.06
2019-06-26T02:21:59.984Z,73.50
2019-06-26T02:24:29.305Z,72.67
2019-06-26T02:26:58.649Z,72.34
2019-06-26T02:29:27.958Z,73.11
2019-06-26T02:31:57.217Z,72.38
2019-06-26T02:36:54.532Z,73.38
2019-06-26T02:39:23.804Z,73.90
2019-06-26T02:41:53.061Z,74.56
2019-06-26T02:44:22.354Z,75.40
2019-06-26T02:46:51.609Z,74.33
2019-06-26T02:49:20.879Z,74.56
2019-06-26T02:51:51.486Z,75.07
2019-06-26T02:54:20.773Z,76.11
2019-06-26T02:56:50.116Z,76.12
2019-06-26T02:59:19.434Z,75.21
2019-06-26T03:01:48.740Z,75.41
2019-06-26T03:04:18.085Z,73.56
2019-06-26T03:06:47.362Z,74.15
2019-06-26T03:09:16.666Z,74.18
2019-06-26T03:11:45.941Z,74.40
2019-06-26T03:14:15.267Z,74.64
2019-06-26T03:16:44.546Z,75.32
2019-06-26T03:19:13.862Z,74.68
2019-06-26T03:21:43.128Z,75.33
2019-06-26T03:24:12.377Z,76.05
2019-06-26T03:26:41.680Z,76.57
2019-06-26T03:29:10.977Z,76.55
2019-06-26T03:31:40.407Z,75.69
2019-06-26T03:34:11.406Z,76.76
2019-06-26T03:36:40.758Z,77.38
2019-06-26T03:39:10.058Z,76.20
2019-06-26T03:41:39.485Z,76.55
2019-06-26T03:44:08.751Z,75.48
2019-06-26T03:46:38.087Z,75.00
2019-06-26T03:49:07.361Z,74.69
2019-06-26T03:51:36.695Z,75.87
2019-06-26T03:54:05.999Z,75.63
2019-06-26T03:56:35.295Z,75.64
2019-06-26T03:59:04.581Z,74.76
2019-06-26T04:01:33.910Z,75.95
2019-06-26T04:04:03.245Z,76.69
2019-06-26T04:06:32.500Z,75.65
2019-06-26T04:09:01.809Z,75.71
2019-06-26T04:11:31.061Z,75.87
2019-06-26T04:14:00.362Z,75.81
2019-06-26T04:16:29.664Z,74.68
2019-06-26T04:18:58.940Z,76.08
2019-06-26T04:21:28.204Z,76.11
2019-06-26T04:23:57.564Z,76.03
2019-06-26T04:26:26.883Z,75.62
2019-06-26T04:28:56.209Z,75.42
2019-06-26T04:31:25.611Z,75.33
2019-06-26T04:33:54.919Z,75.60
2019-06-26T04:36:24.225Z,75.60
2019-06-26T04:38:53.655Z,75.43
2019-06-26T04:41:23.015Z,74.04
2019-06-26T04:43:52.380Z,75.02
2019-06-26T04:46:21.836Z,73.85
2019-06-26T04:48:51.254Z,74.87
2019-06-26T04:51:20.689Z,75.15
2019-06-26T04:53:50.021Z,74.63
2019-06-26T04:56:19.309Z,74.04
2019-06-26T04:58:48.733Z,73.98
2019-06-26T05:01:18.040Z,73.38
2019-06-26T05:03:47.375Z,73.39
2019-06-26T05:06:16.722Z,72.14
2019-06-26T05:08:46.073Z,73.24
2019-06-26T05:11:16.573Z,73.27
2019-06-26T05:13:45.885Z,73.10
2019-06-26T05:16:19.221Z,71.30
2019-06-26T05:18:46.305Z,73.64
2019-06-26T05:21:15.625Z,73.31
2019-06-26T05:23:45.278Z,73.80
2019-06-26T05:26:14.628Z,73.19
2019-06-26T05:28:44.031Z,73.16
2019-06-26T05:31:13.385Z,73.25
2019-06-26T05:33:44.093Z,72.87
2019-06-26T05:36:13.417Z,73.07
2019-06-26T05:38:42.671Z,73.35
2019-06-26T05:41:11.973Z,73.23
2019-06-26T05:43:41.310Z,72.98
2019-06-26T05:46:10.570Z,72.07
2019-06-26T05:48:39.862Z,73.39
2019-06-26T05:51:09.082Z,73.28
2019-06-26T05:53:38.374Z,74.06
2019-06-26T05:56:07.662Z,74.48
2019-06-26T05:58:36.995Z,74.11
2019-06-26T06:01:06.377Z,72.92
2019-06-26T06:03:35.680Z,72.52
2019-06-26T06:06:04.958Z,72.04
2019-06-26T06:08:34.330Z,73.12
2019-06-26T06:11:03.667Z,73.01
2019-06-26T06:13:32.937Z,71.62
2019-06-26T06:16:06.165Z,72.37
2019-06-26T06:18:33.202Z,73.25
2019-06-26T06:21:02.523Z,73.77
2019-06-26T06:23:31.866Z,73.73
2019-06-26T06:26:01.187Z,72.51
2019-06-26T06:28:30.606Z,72.14
2019-06-26T06:30:59.933Z,71.89
2019-06-26T06:33:29.409Z,71.96
2019-06-26T06:35:59.088Z,71.86
2019-06-26T06:38:28.480Z,70.38
2019-06-26T06:40:57.857Z,69.81
2019-06-26T06:43:27.102Z,71.52
2019-06-26T06:45:56.510Z,70.68
2019-06-26T06:48:25.791Z,69.91
2019-06-26T06:50:55.092Z,69.14
2019-06-26T06:53:24.397Z,69.22
2019-06-26T06:55:53.769Z,70.37
2019-06-26T06:58:23.075Z,70.46
2019-06-26T07:00:52.345Z,69.86
2019-06-26T07:03:21.644Z,69.89
2019-06-26T07:05:51.201Z,69.81
2019-06-26T07:08:20.492Z,70.20
2019-06-26T07:10:52.131Z,69.30
2019-06-26T07:13:21.410Z,69.04
2019-06-26T07:15:50.873Z,68.25
2019-06-26T07:18:20.192Z,68.22
2019-06-26T07:20:49.485Z,69.15
2019-06-26T07:23:18.907Z,69.66
2019-06-26T07:25:48.323Z,69.43
2019-06-26T07:28:17.681Z,69.34
2019-06-26T07:30:47.171Z,69.44
2019-06-26T07:33:16.678Z,69.11
2019-06-26T07:35:46.356Z,69.10
2019-06-26T07:38:15.649Z,67.97
2019-06-26T07:40:44.961Z,68.25
2019-06-26T07:43:16.547Z,69.08
2019-06-26T07:45:45.363Z,68.72
2019-06-26T07:48:14.649Z,68.89
2019-06-26T07:50:43.916Z,67.94
2019-06-26T07:53:13.185Z,67.78
2019-06-26T07:55:42.516Z,68.00
2019-06-26T07:58:11.739Z,67.72
2019-06-26T08:00:41.110Z,67.84
2019-06-26T08:03:10.429Z,66.70
2019-06-26T08:05:42.803Z,66.27
2019-06-26T08:08:14.359Z,65.35
2019-06-26T08:10:42.272Z,66.32
2019-06-26T08:13:11.572Z,65.53
2019-06-26T08:15:41.378Z,66.25
2019-06-26T08:18:10.759Z,66.35
2019-06-26T08:20:55.033Z,64.99
2019-06-26T08:23:11.357Z,63.70
2019-06-26T08:25:40.820Z,64.90
2019-06-26T08:28:10.164Z,63.86
2019-06-26T08:30:39.801Z,63.46
2019-06-26T08:33:09.254Z,64.71
2019-06-26T08:35:39.638Z,64.92
2019-06-26T08:38:14.117Z,65.19
2019-06-26T08:40:40.095Z,64.99
2019-06-26T08:43:09.518Z,65.02
2019-06-26T08:45:38.892Z,64.94
2019-06-26T08:48:22.698Z,64.48
2019-06-26T08:50:39.205Z,63.95
2019-06-26T08:53:08.491Z,64.22
2019-06-26T08:55:37.775Z,64.57
2019-06-26T08:58:07.111Z,63.67
2019-06-26T09:00:37.415Z,63.21
2019-06-26T09:03:06.732Z,62.59
2019-06-26T09:05:47.380Z,62.40
2019-06-26T09:08:07.487Z,63.30
2019-06-26T09:10:38.793Z,63.88
2019-06-26T09:13:08.150Z,63.91
2019-06-26T09:15:37.567Z,64.47
2019-06-26T09:18:06.864Z,63.31
2019-06-26T09:20:39.327Z,63.54
2019-06-26T09:23:08.977Z,63.12
2019-06-26T09:25:38.246Z,63.21
2019-06-26T09:28:08.059Z,62.60
2019-06-26T09:30:37.358Z,61.75
2019-06-26T09:33:06.661Z,60.78
2019-06-26T09:35:35.947Z,61.14
2019-06-26T09:38:05.450Z,59.88
2019-06-26T09:40:34.903Z,59.94
2019-06-26T09:43:04.201Z,60.22
2019-06-26T09:45:33.636Z,59.87
2019-06-26T09:48:03.009Z,58.03
2019-06-26T09:50:32.277Z,58.57
2019-06-26T09:53:05.043Z,59.39
2019-06-26T09:55:32.760Z,57.57
2019-06-26T09:58:02.050Z,57.39
2019-06-26T10:00:32.782Z,55.78
2019-06-26T10:03:02.282Z,58.29
2019-06-26T10:05:31.582Z,57.38
2019-06-26T10:08:00.887Z,57.58
2019-06-26T10:10:30.455Z,56.10
2019-06-26T10:12:59.984Z,56.50
2019-06-26T10:15:29.420Z,54.95
2019-06-26T10:17:58.721Z,53.85
2019-06-26T10:20:27.965Z,54.64
2019-06-26T10:22:57.337Z,54.67
2019-06-26T10:25:26.681Z,53.43
2019-06-26T10:27:56.018Z,54.15
2019-06-26T10:30:26.030Z,53.45
2019-06-26T10:35:46.797Z,50.02
2019-06-26T10:38:16.160Z,49.42
2019-06-26T10:40:46.813Z,47.58
2019-06-26T10:43:16.130Z,46.68
2019-06-26T10:45:45.521Z,46.53
2019-06-26T10:48:14.838Z,46.11
2019-06-26T10:50:51.074Z,46.43
2019-06-26T10:53:15.106Z,45.83
2019-06-26T10:55:44.583Z,45.98
2019-06-26T10:58:13.900Z,45.43
2019-06-26T11:00:43.246Z,44.27
2019-06-26T11:03:12.624Z,44.31
2019-06-26T11:05:42.427Z,43.55
2019-06-26T11:08:11.688Z,43.71
2019-06-26T11:10:41.034Z,43.46
2019-06-26T11:13:10.277Z,43.50
2019-06-26T11:15:39.613Z,42.97
2019-06-26T11:18:08.932Z,43.52
2019-06-26T11:20:38.270Z,43.59
2019-06-26T11:23:07.611Z,43.07
2019-06-26T11:25:38.425Z,43.28
2019-06-26T11:28:07.780Z,43.61
2019-06-26T11:30:37.162Z,43.45
2019-06-26T11:33:06.528Z,43.41
2019-06-26T11:35:35.866Z,44.04
2019-06-26T11:38:05.157Z,44.07
2019-06-26T11:40:34.521Z,43.22
2019-06-26T11:43:03.949Z,42.95
2019-06-26T11:45:33.473Z,41.32
2019-06-26T11:48:02.832Z,41.28
2019-06-26T11:50:33.718Z,41.44
2019-06-26T11:53:03.014Z,41.08
2019-06-26T11:55:32.329Z,41.06
2019-06-26T11:58:01.628Z,39.85
2019-06-26T12:00:31.276Z,39.43
2019-06-26T12:03:00.691Z,39.14
2019-06-26T12:05:30.085Z,39.12
2019-06-26T12:07:59.382Z,42.24
2019-06-26T12:10:28.796Z,41.97
2019-06-26T12:12:58.194Z,42.38
2019-06-26T12:15:27.860Z,41.91
2019-06-26T12:17:57.304Z,42.40
2019-06-26T12:20:26.673Z,41.61
2019-06-26T12:22:56.047Z,42.81
2019-06-26T12:25:25.531Z,41.42
2019-06-26T12:27:54.839Z,42.27
2019-06-26T12:30:24.433Z,41.89
2019-06-26T12:33:03.093Z,37.60
2019-06-26T12:35:24.948Z,38.48
2019-06-26T12:37:56.123Z,40.24
2019-06-26T12:40:25.650Z,40.28
2019-06-26T12:42:55.861Z,39.66
2019-06-26T12:45:25.578Z,39.71
2019-06-26T12:47:54.931Z,38.82
2019-06-26T12:50:34.810Z,38.80
2019-06-26T12:52:55.584Z,38.60
2019-06-26T12:55:25.069Z,39.28
2019-06-26T12:58:08.386Z,39.56
2019-06-26T13:00:26.212Z,38.90
2019-06-26T13:02:55.560Z,39.19
2019-06-26T13:05:25.132Z,40.38
2019-06-26T13:07:54.399Z,40.42
2019-06-26T13:10:24.333Z,40.03
2019-06-26T13:12:53.636Z,39.88
2019-06-26T13:15:22.913Z,39.06
2019-06-26T13:17:52.192Z,40.50
2019-06-26T13:20:22.371Z,41.52
2019-06-26T13:22:51.698Z,43.30
2019-06-26T13:28:00.455Z,43.32
2019-06-26T13:30:36.680Z,43.96
2019-06-26T13:33:06.105Z,43.92
2019-06-26T13:35:35.439Z,44.05
2019-06-26T13:38:04.878Z,42.91
2019-06-26T13:40:34.393Z,44.14
2019-06-26T13:43:03.923Z,44.15
2019-06-26T13:45:33.264Z,43.50
2019-06-26T13:48:02.765Z,43.03
2019-06-26T13:50:32.275Z,42.78
2019-06-26T13:53:01.609Z,43.01
2019-06-26T13:55:30.930Z,43.11
2019-06-26T13:58:00.306Z,42.34
2019-06-26T14:00:29.664Z,42.33
2019-06-26T14:02:59.038Z,42.28
2019-06-26T14:05:29.543Z,41.93
2019-06-26T14:08:01.237Z,42.13
2019-06-26T14:10:30.566Z,40.36
2019-06-26T14:12:59.869Z,39.29
2019-06-26T14:15:29.239Z,39.94
2019-06-26T14:17:58.606Z,41.45
2019-06-26T14:20:28.461Z,41.00
2019-06-26T14:22:57.803Z,40.96
2019-06-26T14:25:27.238Z,41.41
2019-06-26T14:27:56.626Z,42.78
2019-06-26T14:30:27.972Z,41.66
2019-06-26T14:32:56.941Z,40.30
2019-06-26T14:35:26.217Z,41.83
2019-06-26T14:37:55.658Z,41.39
2019-06-26T14:40:25.914Z,40.06
2019-06-26T14:42:55.238Z,41.31
2019-06-26T14:45:24.569Z,42.03
2019-06-26T14:47:53.965Z,41.22
2019-06-26T14:50:23.388Z,41.02
2019-06-26T14:52:52.818Z,41.60
2019-06-26T14:55:22.735Z,42.13
2019-06-26T14:57:52.084Z,41.26
2019-06-26T15:00:24.723Z,40.59
2019-06-26T15:02:56.459Z,41.33
2019-06-26T15:05:25.805Z,41.26
2019-06-26T15:07:55.416Z,40.60
2019-06-26T15:10:24.748Z,41.20
2019-06-26T15:12:54.091Z,40.48
2019-06-26T15:15:23.426Z,39.50
2019-06-26T15:17:52.743Z,40.24
2019-06-26T15:20:22.094Z,40.83
2019-06-26T15:22:53.018Z,41.34
2019-06-26T15:25:22.718Z,41.97
2019-06-26T15:27:52.042Z,42.86
2019-06-26T15:30:23.854Z,43.39
2019-06-26T15:32:54.479Z,44.03
2019-06-26T15:35:26.574Z,43.66
2019-06-26T15:37:55.921Z,44.50
2019-06-26T15:40:25.323Z,44.97
2019-06-26T15:42:55.053Z,44.98
2019-06-26T15:45:24.525Z,47.02
2019-06-26T15:47:53.888Z,46.97
2019-06-26T15:50:23.200Z,47.26
2019-06-26T15:52:52.570Z,47.26
2019-06-26T15:55:22.235Z,48.07
2019-06-26T15:57:51.556Z,48.83
2019-06-26T16:00:21.030Z,48.52
2019-06-26T16:02:51.574Z,48.36
2019-06-26T16:05:20.833Z,48.77
2019-06-26T16:07:50.219Z,48.06
2019-06-26T16:10:19.634Z,48.11
2019-06-26T16:12:49.052Z,48.30
2019-06-26T16:15:18.704Z,48.56
2019-06-26T16:17:59.685Z,48.36
2019-06-26T16:20:29.078Z,46.91
2019-06-26T16:22:58.380Z,47.65
2019-06-26T16:25:27.870Z,46.73
2019-06-26T16:28:05.150Z,47.20
2019-06-26T16:30:29.905Z,47.53
2019-06-26T16:32:59.265Z,47.14
2019-06-26T16:35:28.585Z,47.70
2019-06-26T16:37:58.008Z,47.82
2019-06-26T16:40:27.492Z,47.01
2019-06-26T16:42:56.893Z,45.78
2019-06-26T16:45:26.166Z,45.50
2019-06-26T16:47:57.424Z,46.37
2019-06-26T16:50:26.833Z,46.46
2019-06-26T16:52:56.274Z,46.92
2019-06-26T16:55:25.692Z,47.80
2019-06-26T16:57:55.403Z,47.53
2019-06-26T17:00:24.796Z,47.07
2019-06-26T17:02:54.230Z,47.18
2019-06-26T17:05:23.671Z,47.35
2019-06-26T17:07:53.051Z,48.09
2019-06-26T17:10:22.612Z,49.29
2019-06-26T17:12:51.921Z,48.60
2019-06-26T17:15:21.837Z,48.03
2019-06-26T17:17:51.236Z,48.77
2019-06-26T17:20:20.871Z,49.63
2019-06-26T17:23:04.614Z,49.31
2019-06-26T17:25:22.756Z,49.00
2019-06-26T17:27:52.102Z,47.54
2019-06-26T17:30:21.527Z,45.73
2019-06-26T17:32:50.862Z,43.58
2019-06-26T17:35:20.221Z,44.72
2019-06-26T17:37:49.742Z,43.06
2019-06-26T17:40:42.987Z,39.67
2019-06-26T17:43:13.117Z,42.23
2019-06-26T17:45:43.770Z,45.78
2019-06-26T17:48:13.063Z,46.98
2019-06-26T17:50:42.504Z,48.66
2019-06-26T17:53:21.115Z,49.60
2019-06-26T17:55:43.037Z,49.70
2019-06-26T17:58:12.427Z,50.68
2019-06-26T18:00:41.858Z,50.50
2019-06-26T18:03:11.396Z,51.34
2019-06-26T18:05:41.126Z,51.93
2019-06-26T18:08:10.642Z,52.45
2019-06-26T18:10:40.124Z,51.43
2019-06-26T18:13:09.467Z,51.93
2019-06-26T18:15:38.894Z,52.56
2019-06-26T18:18:08.225Z,53.67
2019-06-26T18:20:37.657Z,53.66
2019-06-26T18:23:08.034Z,53.49
2019-06-26T18:25:37.501Z,54.00
2019-06-26T18:28:06.832Z,53.07
2019-06-26T18:30:36.394Z,54.30
2019-06-26T18:33:05.909Z,55.02
2019-06-26T18:35:35.446Z,54.47
2019-06-26T18:38:04.768Z,54.25
2019-06-26T18:40:34.122Z,54.57
2019-06-26T18:43:03.574Z,55.32
2019-06-26T18:45:34.073Z,55.55
2019-06-26T18:48:03.581Z,55.78
2019-06-26T18:50:33.086Z,55.79
2019-06-26T18:53:04.243Z,55.98
2019-06-26T18:55:34.718Z,55.99
2019-06-26T18:58:05.219Z,55.93
2019-06-26T19:00:34.629Z,56.40
2019-06-26T19:03:04.035Z,56.32
2019-06-26T19:05:35.414Z,56.57
2019-06-26T19:08:04.906Z,56.74
2019-06-26T19:10:36.212Z,57.42
2019-06-26T19:13:05.585Z,57.58
2019-06-26T19:15:34.943Z,57.37
2019-06-26T19:18:04.355Z,57.14
2019-06-26T19:20:34.022Z,56.77
2019-06-26T19:23:03.393Z,57.34
2019-06-26T19:25:32.903Z,57.56
2019-06-26T19:28:02.277Z,56.50
2019-06-26T19:30:31.686Z,56.16
2019-06-26T19:33:01.045Z,56.93
2019-06-26T19:35:30.760Z,56.29
2019-06-26T19:38:00.200Z,57.26
2019-06-26T19:40:29.663Z,56.76
2019-06-26T19:43:00.627Z,56.61
2019-06-26T19:45:31.496Z,57.09
2019-06-26T19:48:01.129Z,57.59
2019-06-26T19:50:33.048Z,58.01
2019-06-26T19:53:05.778Z,58.32
2019-06-26T19:55:35.286Z,58.08
2019-06-26T19:58:04.776Z,58.10
2019-06-26T20:00:34.309Z,58.18
2019-06-26T20:03:03.972Z,58.70
2019-06-26T20:05:33.449Z,59.20
2019-06-26T20:08:03.044Z,59.60
2019-06-26T20:10:32.827Z,59.11
2019-06-26T20:13:02.171Z,59.65
2019-06-26T20:15:31.723Z,60.88
2019-06-26T20:18:04.198Z,60.22
2019-06-26T20:20:33.800Z,60.87
2019-06-26T20:23:04.593Z,61.75
2019-06-26T20:25:33.944Z,62.33
2019-06-26T20:28:03.382Z,62.24
2019-06-26T20:30:35.000Z,61.07
2019-06-26T20:33:07.559Z,60.97
2019-06-26T20:35:38.894Z,60.40
2019-06-26T20:38:08.042Z,61.16
2019-06-26T20:40:37.376Z,60.68
2019-06-26T20:43:06.710Z,59.93
2019-06-26T20:45:39.569Z,60.52
2019-06-26T20:48:09.021Z,60.33
2019-06-26T20:50:39.882Z,60.71
2019-06-26T20:53:09.229Z,61.15
2019-06-26T20:55:38.563Z,61.88
2019-06-26T20:58:08.068Z,61.95
2019-06-26T21:00:39.218Z,61.77
2019-06-26T21:03:08.598Z,61.62
2019-06-26T21:05:37.939Z,61.22
2019-06-26T21:08:07.315Z,61.42
2019-06-26T21:10:36.739Z,60.34
2019-06-26T21:13:06.090Z,60.97
2019-06-26T21:15:35.538Z,61.48
2019-06-26T21:18:04.967Z,61.97
2019-06-26T21:20:34.303Z,61.57
2019-06-26T21:23:03.825Z,62.24
2019-06-26T21:25:33.220Z,61.72
2019-06-26T21:28:02.789Z,62.26
2019-06-26T21:30:32.262Z,62.63
2019-06-26T21:33:02.892Z,62.26
2019-06-26T21:35:32.247Z,62.97
2019-06-26T21:38:03.011Z,64.45
2019-06-26T21:40:32.430Z,63.96
2019-06-26T21:43:02.603Z,64.17
2019-06-26T21:45:32.121Z,63.31
2019-06-26T21:48:01.433Z,65.26
2019-06-26T21:50:30.849Z,67.01
2019-06-26T21:53:00.198Z,67.45
2019-06-26T21:55:34.078Z,67.75
2019-06-26T21:58:00.839Z,66.42
2019-06-26T22:00:32.731Z,67.67
2019-06-26T22:03:02.152Z,68.16
2019-06-26T22:05:31.506Z,68.16
2019-06-26T22:08:00.887Z,66.72
2019-06-26T22:10:30.327Z,66.91
2019-06-26T22:12:59.883Z,66.31
2019-06-26T22:15:29.359Z,66.44
2019-06-26T22:17:59.682Z,66.44
2019-06-26T22:20:29.229Z,67.08
2019-06-26T22:22:58.905Z,66.78
2019-06-26T22:25:28.227Z,66.78
2019-06-26T22:27:57.553Z,66.45
2019-06-26T22:30:27.063Z,66.45
2019-06-26T22:32:56.799Z,66.53
2019-06-26T22:35:26.214Z,67.87
2019-06-26T22:37:55.494Z,69.06
2019-06-26T22:40:24.887Z,67.86
2019-06-26T22:42:54.610Z,68.97
2019-06-26T22:45:24.060Z,68.09
2019-06-26T22:47:53.374Z,68.59
2019-06-26T22:50:22.894Z,68.01
2019-06-26T22:52:52.356Z,68.66
2019-06-26T22:55:21.741Z,69.78
2019-06-26T22:57:51.200Z,69.29
2019-06-26T23:00:21.744Z,68.17
2019-06-26T23:02:51.471Z,68.91
2019-06-26T23:05:22.965Z,68.99
2019-06-26T23:07:53.163Z,70.20
2019-06-26T23:10:22.672Z,69.42
2019-06-26T23:12:52.575Z,68.55
2019-06-26T23:15:21.906Z,69.55
2019-06-26T23:17:51.267Z,70.03
2019-06-26T23:20:22.431Z,69.50
2019-06-26T23:22:51.878Z,69.40
2019-06-26T23:25:21.187Z,69.40
2019-06-26T23:27:50.524Z,69.23
2019-06-26T23:30:21.437Z,68.85
2019-06-26T23:32:51.126Z,68.71
2019-06-26T23:35:20.394Z,69.32
2019-06-26T23:37:49.695Z,69.70
2019-06-26T23:40:19.447Z,69.19
2019-06-26T23:42:48.749Z,69.34
2019-06-26T23:45:18.480Z,69.62
2019-06-26T23:47:47.824Z,69.81
2019-06-26T23:50:17.156Z,70.32
2019-06-26T23:52:46.554Z,70.48
2019-06-26T23:55:16.151Z,71.45
2019-06-26T23:57:58.471Z,71.59
